sensor_id;sensor_type;location;lat;lon;timestamp;P1;durP1;ratioP1;P2;durP2;ratioP2
6280;SDS011;3173;48.204;11.612;2023-02-01T00:00:13;5.40;;;2.67;;
6280;SDS011;3173;48.204;11.612;2023-02-01T00:02:39;3.83;;;2.00;;
6280;SDS011;3173;48.204;11.612;2023-02-01T00:05:09;3.47;;;1.80;;
6280;SDS011;3173;48.204;11.612;2023-02-01T00:07:36;5.20;;;2.40;;
6280;SDS011;3173;48.204;11.612;2023-02-01T00:10:02;3.60;;;2.10;;
6280;SDS011;3173;48.204;11.612;2023-02-01T00:12:29;3.50;;;2.27;;
6280;SDS011;3173;48.204;11.612;2023-02-01T00:14:55;4.10;;;2.73;;
6280;SDS011;3173;48.204;11.612;2023-02-01T00:17:21;5.23;;;2.00;;
6280;SDS011;3173;48.204;11.612;2023-02-01T00:19:47;6.23;;;2.60;;
6280;SDS011;3173;48.204;11.612;2023-02-01T00:22:13;4.60;;;2.40;;
6280;SDS011;3173;48.204;11.612;2023-02-01T00:24:39;4.10;;;2.50;;
6280;SDS011;3173;48.204;11.612;2023-02-01T00:27:05;5.30;;;3.03;;
6280;SDS011;3173;48.204;11.612;2023-02-01T00:29:31;3.60;;;2.10;;
6280;SDS011;3173;48.204;11.612;2023-02-01T00:31:57;6.07;;;2.23;;
6280;SDS011;3173;48.204;11.612;2023-02-01T00:34:23;5.10;;;2.97;;
6280;SDS011;3173;48.204;11.612;2023-02-01T00:36:49;5.67;;;2.90;;
6280;SDS011;3173;48.204;11.612;2023-02-01T00:39:15;3.80;;;2.40;;
6280;SDS011;3173;48.204;11.612;2023-02-01T00:41:42;4.40;;;2.60;;
6280;SDS011;3173;48.204;11.612;2023-02-01T00:44:08;5.07;;;3.00;;
6280;SDS011;3173;48.204;11.612;2023-02-01T00:46:34;5.47;;;2.53;;
6280;SDS011;3173;48.204;11.612;2023-02-01T00:49:01;4.87;;;2.57;;
6280;SDS011;3173;48.204;11.612;2023-02-01T00:51:28;5.70;;;2.87;;
6280;SDS011;3173;48.204;11.612;2023-02-01T00:53:54;3.53;;;2.70;;
6280;SDS011;3173;48.204;11.612;2023-02-01T00:56:20;5.90;;;2.67;;
6280;SDS011;3173;48.204;11.612;2023-02-01T00:58:46;8.97;;;3.03;;
6280;SDS011;3173;48.204;11.612;2023-02-01T01:01:14;6.03;;;3.07;;
6280;SDS011;3173;48.204;11.612;2023-02-01T01:03:43;5.87;;;3.20;;
6280;SDS011;3173;48.204;11.612;2023-02-01T01:06:13;6.53;;;2.63;;
6280;SDS011;3173;48.204;11.612;2023-02-01T01:08:40;4.20;;;2.70;;
6280;SDS011;3173;48.204;11.612;2023-02-01T01:11:10;9.40;;;3.27;;
6280;SDS011;3173;48.204;11.612;2023-02-01T01:13:36;5.57;;;3.50;;
6280;SDS011;3173;48.204;11.612;2023-02-01T01:16:03;5.63;;;3.17;;
6280;SDS011;3173;48.204;11.612;2023-02-01T01:18:30;5.50;;;3.33;;
6280;SDS011;3173;48.204;11.612;2023-02-01T01:20:56;6.90;;;3.50;;
6280;SDS011;3173;48.204;11.612;2023-02-01T01:23:23;7.47;;;4.03;;
6280;SDS011;3173;48.204;11.612;2023-02-01T01:25:49;5.53;;;3.70;;
6280;SDS011;3173;48.204;11.612;2023-02-01T01:28:15;6.67;;;3.87;;
6280;SDS011;3173;48.204;11.612;2023-02-01T01:30:41;5.33;;;3.53;;
6280;SDS011;3173;48.204;11.612;2023-02-01T01:33:07;6.87;;;4.53;;
6280;SDS011;3173;48.204;11.612;2023-02-01T01:35:34;6.10;;;3.80;;
6280;SDS011;3173;48.204;11.612;2023-02-01T01:38:00;5.53;;;3.83;;
6280;SDS011;3173;48.204;11.612;2023-02-01T01:40:27;4.10;;;2.70;;
6280;SDS011;3173;48.204;11.612;2023-02-01T01:42:53;7.20;;;3.80;;
6280;SDS011;3173;48.204;11.612;2023-02-01T01:47:53;6.30;;;3.87;;
6280;SDS011;3173;48.204;11.612;2023-02-01T01:50:21;5.97;;;3.50;;
6280;SDS011;3173;48.204;11.612;2023-02-01T01:52:50;9.40;;;4.20;;
6280;SDS011;3173;48.204;11.612;2023-02-01T01:55:18;4.90;;;3.40;;
6280;SDS011;3173;48.204;11.612;2023-02-01T01:57:46;6.70;;;3.67;;
6280;SDS011;3173;48.204;11.612;2023-02-01T02:00:16;8.97;;;3.90;;
6280;SDS011;3173;48.204;11.612;2023-02-01T02:02:44;5.13;;;3.77;;
6280;SDS011;3173;48.204;11.612;2023-02-01T02:05:12;15.50;;;4.70;;
6280;SDS011;3173;48.204;11.612;2023-02-01T02:07:40;7.50;;;4.07;;
6280;SDS011;3173;48.204;11.612;2023-02-01T02:10:08;5.77;;;4.53;;
6280;SDS011;3173;48.204;11.612;2023-02-01T02:12:39;7.27;;;4.30;;
6280;SDS011;3173;48.204;11.612;2023-02-01T02:15:09;8.83;;;4.57;;
6280;SDS011;3173;48.204;11.612;2023-02-01T02:17:56;6.30;;;4.20;;
6280;SDS011;3173;48.204;11.612;2023-02-01T02:38:54;8.27;;;4.77;;
6280;SDS011;3173;48.204;11.612;2023-02-01T02:41:35;5.50;;;3.70;;
6280;SDS011;3173;48.204;11.612;2023-02-01T02:47:22;7.97;;;5.07;;
6280;SDS011;3173;48.204;11.612;2023-02-01T02:49:54;10.23;;;4.80;;
6280;SDS011;3173;48.204;11.612;2023-02-01T02:52:42;5.97;;;4.17;;
6280;SDS011;3173;48.204;11.612;2023-02-01T02:55:30;8.57;;;3.90;;
6280;SDS011;3173;48.204;11.612;2023-02-01T02:57:58;7.97;;;4.13;;
6280;SDS011;3173;48.204;11.612;2023-02-01T03:00:42;8.57;;;3.90;;
6280;SDS011;3173;48.204;11.612;2023-02-01T03:03:28;7.27;;;4.30;;
6280;SDS011;3173;48.204;11.612;2023-02-01T03:06:14;7.13;;;4.20;;
6280;SDS011;3173;48.204;11.612;2023-02-01T03:08:41;8.70;;;4.10;;
6280;SDS011;3173;48.204;11.612;2023-02-01T03:11:10;6.37;;;4.30;;
6280;SDS011;3173;48.204;11.612;2023-02-01T03:18:36;9.87;;;3.83;;
6280;SDS011;3173;48.204;11.612;2023-02-01T03:21:06;7.90;;;4.10;;
6280;SDS011;3173;48.204;11.612;2023-02-01T03:23:34;5.60;;;3.60;;
6280;SDS011;3173;48.204;11.612;2023-02-01T03:26:03;7.47;;;3.83;;
6280;SDS011;3173;48.204;11.612;2023-02-01T03:28:31;6.50;;;3.70;;
6280;SDS011;3173;48.204;11.612;2023-02-01T03:30:59;9.53;;;4.03;;
6280;SDS011;3173;48.204;11.612;2023-02-01T03:33:26;6.63;;;3.87;;
6280;SDS011;3173;48.204;11.612;2023-02-01T03:36:03;5.27;;;3.43;;
6280;SDS011;3173;48.204;11.612;2023-02-01T03:46:20;5.63;;;3.47;;
6280;SDS011;3173;48.204;11.612;2023-02-01T03:48:48;5.17;;;3.40;;
6280;SDS011;3173;48.204;11.612;2023-02-01T03:51:15;6.67;;;3.03;;
6280;SDS011;3173;48.204;11.612;2023-02-01T03:53:41;8.70;;;3.93;;
6280;SDS011;3173;48.204;11.612;2023-02-01T03:56:10;6.30;;;3.80;;
6280;SDS011;3173;48.204;11.612;2023-02-01T03:58:36;5.00;;;3.47;;
6280;SDS011;3173;48.204;11.612;2023-02-01T04:01:02;5.10;;;3.40;;
6280;SDS011;3173;48.204;11.612;2023-02-01T04:03:28;4.60;;;3.20;;
6280;SDS011;3173;48.204;11.612;2023-02-01T04:05:55;5.03;;;3.03;;
6280;SDS011;3173;48.204;11.612;2023-02-01T04:08:21;6.03;;;3.30;;
6280;SDS011;3173;48.204;11.612;2023-02-01T04:10:47;6.30;;;3.50;;
6280;SDS011;3173;48.204;11.612;2023-02-01T04:13:13;5.67;;;3.23;;
6280;SDS011;3173;48.204;11.612;2023-02-01T04:15:39;6.37;;;4.77;;
6280;SDS011;3173;48.204;11.612;2023-02-01T04:18:05;4.43;;;2.97;;
6280;SDS011;3173;48.204;11.612;2023-02-01T04:20:32;5.07;;;3.20;;
6280;SDS011;3173;48.204;11.612;2023-02-01T04:22:58;5.07;;;3.33;;
6280;SDS011;3173;48.204;11.612;2023-02-01T04:25:24;4.90;;;3.30;;
6280;SDS011;3173;48.204;11.612;2023-02-01T04:27:50;5.13;;;2.90;;
6280;SDS011;3173;48.204;11.612;2023-02-01T04:30:17;4.87;;;2.87;;
6280;SDS011;3173;48.204;11.612;2023-02-01T04:32:43;5.40;;;2.63;;
6280;SDS011;3173;48.204;11.612;2023-02-01T04:35:09;4.03;;;3.03;;
6280;SDS011;3173;48.204;11.612;2023-02-01T04:37:36;6.83;;;3.40;;
6280;SDS011;3173;48.204;11.612;2023-02-01T04:40:02;5.60;;;3.07;;
6280;SDS011;3173;48.204;11.612;2023-02-01T04:42:29;4.87;;;3.33;;
6280;SDS011;3173;48.204;11.612;2023-02-01T04:44:55;5.27;;;3.50;;
6280;SDS011;3173;48.204;11.612;2023-02-01T04:47:21;4.20;;;3.30;;
6280;SDS011;3173;48.204;11.612;2023-02-01T04:49:47;6.93;;;3.60;;
6280;SDS011;3173;48.204;11.612;2023-02-01T04:52:13;5.70;;;3.60;;
6280;SDS011;3173;48.204;11.612;2023-02-01T04:54:39;4.47;;;3.00;;
6280;SDS011;3173;48.204;11.612;2023-02-01T04:57:05;4.03;;;3.10;;
6280;SDS011;3173;48.204;11.612;2023-02-01T04:59:32;5.50;;;3.50;;
6280;SDS011;3173;48.204;11.612;2023-02-01T05:01:58;6.37;;;3.30;;
6280;SDS011;3173;48.204;11.612;2023-02-01T05:04:24;5.00;;;3.30;;
6280;SDS011;3173;48.204;11.612;2023-02-01T05:06:50;5.70;;;3.43;;
6280;SDS011;3173;48.204;11.612;2023-02-01T05:09:16;5.10;;;3.00;;
6280;SDS011;3173;48.204;11.612;2023-02-01T05:11:42;5.67;;;4.10;;
6280;SDS011;3173;48.204;11.612;2023-02-01T05:14:27;6.33;;;4.07;;
6280;SDS011;3173;48.204;11.612;2023-02-01T05:16:53;6.60;;;3.93;;
6280;SDS011;3173;48.204;11.612;2023-02-01T05:19:19;4.67;;;3.13;;
6280;SDS011;3173;48.204;11.612;2023-02-01T05:21:45;6.00;;;2.87;;
6280;SDS011;3173;48.204;11.612;2023-02-01T05:24:12;8.70;;;4.07;;
6280;SDS011;3173;48.204;11.612;2023-02-01T05:26:42;5.17;;;3.60;;
6280;SDS011;3173;48.204;11.612;2023-02-01T05:29:08;6.40;;;3.50;;
6280;SDS011;3173;48.204;11.612;2023-02-01T05:31:35;8.73;;;3.60;;
6280;SDS011;3173;48.204;11.612;2023-02-01T05:34:01;5.00;;;3.37;;
6280;SDS011;3173;48.204;11.612;2023-02-01T05:36:27;5.80;;;3.60;;
6280;SDS011;3173;48.204;11.612;2023-02-01T05:38:53;6.37;;;3.90;;
6280;SDS011;3173;48.204;11.612;2023-02-01T05:41:20;5.83;;;4.20;;
6280;SDS011;3173;48.204;11.612;2023-02-01T05:43:46;5.93;;;4.03;;
6280;SDS011;3173;48.204;11.612;2023-02-01T05:46:12;5.30;;;3.40;;
6280;SDS011;3173;48.204;11.612;2023-02-01T05:48:39;7.03;;;3.90;;
6280;SDS011;3173;48.204;11.612;2023-02-01T05:51:05;7.60;;;4.47;;
6280;SDS011;3173;48.204;11.612;2023-02-01T05:53:32;6.73;;;3.97;;
6280;SDS011;3173;48.204;11.612;2023-02-01T05:55:58;5.87;;;3.57;;
6280;SDS011;3173;48.204;11.612;2023-02-01T05:58:24;6.63;;;3.80;;
6280;SDS011;3173;48.204;11.612;2023-02-01T06:00:50;6.47;;;3.43;;
6280;SDS011;3173;48.204;11.612;2023-02-01T06:03:16;7.00;;;4.00;;
6280;SDS011;3173;48.204;11.612;2023-02-01T06:05:46;5.07;;;4.23;;
6280;SDS011;3173;48.204;11.612;2023-02-01T06:08:12;7.17;;;4.20;;
6280;SDS011;3173;48.204;11.612;2023-02-01T06:10:38;6.53;;;4.20;;
6280;SDS011;3173;48.204;11.612;2023-02-01T06:13:04;5.27;;;3.40;;
6280;SDS011;3173;48.204;11.612;2023-02-01T06:15:31;4.70;;;3.60;;
6280;SDS011;3173;48.204;11.612;2023-02-01T06:17:57;4.97;;;3.93;;
6280;SDS011;3173;48.204;11.612;2023-02-01T06:20:23;5.90;;;3.93;;
6280;SDS011;3173;48.204;11.612;2023-02-01T06:22:50;8.70;;;3.93;;
6280;SDS011;3173;48.204;11.612;2023-02-01T06:25:17;4.70;;;3.70;;
6280;SDS011;3173;48.204;11.612;2023-02-01T06:27:44;5.80;;;3.20;;
6280;SDS011;3173;48.204;11.612;2023-02-01T06:30:10;5.10;;;3.60;;
6280;SDS011;3173;48.204;11.612;2023-02-01T06:32:40;4.97;;;3.43;;
6280;SDS011;3173;48.204;11.612;2023-02-01T06:35:09;6.50;;;3.50;;
6280;SDS011;3173;48.204;11.612;2023-02-01T06:37:41;6.77;;;3.50;;
6280;SDS011;3173;48.204;11.612;2023-02-01T06:40:08;6.17;;;3.40;;
6280;SDS011;3173;48.204;11.612;2023-02-01T06:42:34;6.73;;;3.30;;
6280;SDS011;3173;48.204;11.612;2023-02-01T06:45:00;13.23;;;3.67;;
6280;SDS011;3173;48.204;11.612;2023-02-01T06:47:26;6.30;;;3.80;;
6280;SDS011;3173;48.204;11.612;2023-02-01T06:49:52;7.40;;;4.13;;
6280;SDS011;3173;48.204;11.612;2023-02-01T06:52:18;5.60;;;3.40;;
6280;SDS011;3173;48.204;11.612;2023-02-01T06:54:44;5.17;;;3.43;;
6280;SDS011;3173;48.204;11.612;2023-02-01T06:57:10;7.53;;;3.63;;
6280;SDS011;3173;48.204;11.612;2023-02-01T06:59:37;6.87;;;3.37;;
6280;SDS011;3173;48.204;11.612;2023-02-01T07:02:03;4.93;;;3.53;;
6280;SDS011;3173;48.204;11.612;2023-02-01T07:04:29;13.30;;;3.57;;
6280;SDS011;3173;48.204;11.612;2023-02-01T07:06:55;4.50;;;2.90;;
6280;SDS011;3173;48.204;11.612;2023-02-01T07:09:21;5.87;;;3.67;;
6280;SDS011;3173;48.204;11.612;2023-02-01T07:11:47;5.30;;;3.50;;
6280;SDS011;3173;48.204;11.612;2023-02-01T07:14:14;4.30;;;3.50;;
6280;SDS011;3173;48.204;11.612;2023-02-01T07:16:40;5.60;;;3.00;;
6280;SDS011;3173;48.204;11.612;2023-02-01T07:19:06;5.83;;;3.10;;
6280;SDS011;3173;48.204;11.612;2023-02-01T07:21:32;5.20;;;3.50;;
6280;SDS011;3173;48.204;11.612;2023-02-01T07:23:58;6.37;;;3.97;;
6280;SDS011;3173;48.204;11.612;2023-02-01T07:26:25;9.03;;;3.70;;
6280;SDS011;3173;48.204;11.612;2023-02-01T07:28:51;4.37;;;2.97;;
6280;SDS011;3173;48.204;11.612;2023-02-01T07:31:18;5.83;;;2.70;;
6280;SDS011;3173;48.204;11.612;2023-02-01T07:33:46;4.40;;;2.57;;
6280;SDS011;3173;48.204;11.612;2023-02-01T07:36:14;6.10;;;2.83;;
6280;SDS011;3173;48.204;11.612;2023-02-01T07:38:40;5.33;;;2.70;;
6280;SDS011;3173;48.204;11.612;2023-02-01T07:41:07;4.87;;;3.00;;
6280;SDS011;3173;48.204;11.612;2023-02-01T07:43:33;5.33;;;2.77;;
6280;SDS011;3173;48.204;11.612;2023-02-01T07:45:59;3.70;;;2.30;;
6280;SDS011;3173;48.204;11.612;2023-02-01T07:48:26;6.43;;;2.97;;
6280;SDS011;3173;48.204;11.612;2023-02-01T07:50:58;4.53;;;2.60;;
6280;SDS011;3173;48.204;11.612;2023-02-01T07:53:25;7.97;;;2.47;;
6280;SDS011;3173;48.204;11.612;2023-02-01T07:55:51;6.87;;;3.17;;
6280;SDS011;3173;48.204;11.612;2023-02-01T07:58:17;4.40;;;3.03;;
6280;SDS011;3173;48.204;11.612;2023-02-01T08:00:43;3.43;;;2.33;;
6280;SDS011;3173;48.204;11.612;2023-02-01T08:03:28;6.23;;;2.70;;
6280;SDS011;3173;48.204;11.612;2023-02-01T08:05:54;4.03;;;2.30;;
6280;SDS011;3173;48.204;11.612;2023-02-01T08:08:21;4.63;;;2.53;;
6280;SDS011;3173;48.204;11.612;2023-02-01T08:10:47;3.93;;;2.27;;
6280;SDS011;3173;48.204;11.612;2023-02-01T08:13:13;5.57;;;1.97;;
6280;SDS011;3173;48.204;11.612;2023-02-01T08:15:39;3.30;;;2.00;;
6280;SDS011;3173;48.204;11.612;2023-02-01T08:18:05;2.97;;;1.90;;
6280;SDS011;3173;48.204;11.612;2023-02-01T08:20:31;4.73;;;2.70;;
6280;SDS011;3173;48.204;11.612;2023-02-01T08:22:59;4.20;;;2.13;;
6280;SDS011;3173;48.204;11.612;2023-02-01T08:25:25;5.07;;;2.23;;
6280;SDS011;3173;48.204;11.612;2023-02-01T08:27:52;3.43;;;1.80;;
6280;SDS011;3173;48.204;11.612;2023-02-01T08:30:19;3.23;;;2.10;;
6280;SDS011;3173;48.204;11.612;2023-02-01T08:32:46;4.47;;;2.50;;
6280;SDS011;3173;48.204;11.612;2023-02-01T08:35:13;4.40;;;2.10;;
6280;SDS011;3173;48.204;11.612;2023-02-01T08:37:39;4.10;;;1.83;;
6280;SDS011;3173;48.204;11.612;2023-02-01T08:40:05;4.20;;;1.63;;
6280;SDS011;3173;48.204;11.612;2023-02-01T08:42:31;5.13;;;1.70;;
6280;SDS011;3173;48.204;11.612;2023-02-01T08:45:16;3.57;;;1.70;;
6280;SDS011;3173;48.204;11.612;2023-02-01T08:47:44;5.20;;;2.07;;
6280;SDS011;3173;48.204;11.612;2023-02-01T08:50:12;5.33;;;2.10;;
6280;SDS011;3173;48.204;11.612;2023-02-01T08:52:38;3.30;;;2.00;;
6280;SDS011;3173;48.204;11.612;2023-02-01T08:55:05;9.30;;;1.87;;
6280;SDS011;3173;48.204;11.612;2023-02-01T08:57:32;5.13;;;1.90;;
6280;SDS011;3173;48.204;11.612;2023-02-01T08:59:58;3.27;;;2.07;;
6280;SDS011;3173;48.204;11.612;2023-02-01T09:02:25;5.90;;;1.70;;
6280;SDS011;3173;48.204;11.612;2023-02-01T09:04:51;2.83;;;1.90;;
6280;SDS011;3173;48.204;11.612;2023-02-01T09:07:18;4.13;;;1.80;;
6280;SDS011;3173;48.204;11.612;2023-02-01T09:09:44;2.00;;;1.60;;
6280;SDS011;3173;48.204;11.612;2023-02-01T09:12:11;3.77;;;1.67;;
6280;SDS011;3173;48.204;11.612;2023-02-01T09:14:37;2.77;;;1.70;;
6280;SDS011;3173;48.204;11.612;2023-02-01T09:17:03;2.97;;;1.60;;
6280;SDS011;3173;48.204;11.612;2023-02-01T09:19:30;5.33;;;1.90;;
6280;SDS011;3173;48.204;11.612;2023-02-01T09:21:57;4.40;;;1.60;;
6280;SDS011;3173;48.204;11.612;2023-02-01T09:24:23;3.70;;;1.93;;
6280;SDS011;3173;48.204;11.612;2023-02-01T09:26:49;3.43;;;2.07;;
6280;SDS011;3173;48.204;11.612;2023-02-01T09:29:16;2.77;;;1.70;;
6280;SDS011;3173;48.204;11.612;2023-02-01T09:31:42;2.40;;;1.40;;
6280;SDS011;3173;48.204;11.612;2023-02-01T09:34:09;2.20;;;1.67;;
6280;SDS011;3173;48.204;11.612;2023-02-01T09:36:35;4.10;;;1.80;;
6280;SDS011;3173;48.204;11.612;2023-02-01T09:39:01;3.00;;;1.50;;
6280;SDS011;3173;48.204;11.612;2023-02-01T09:44:23;3.57;;;1.80;;
6280;SDS011;3173;48.204;11.612;2023-02-01T09:46:56;5.03;;;2.03;;
6280;SDS011;3173;48.204;11.612;2023-02-01T09:49:28;4.23;;;1.93;;
6280;SDS011;3173;48.204;11.612;2023-02-01T09:51:55;3.17;;;1.70;;
6280;SDS011;3173;48.204;11.612;2023-02-01T09:54:23;2.47;;;1.73;;
6280;SDS011;3173;48.204;11.612;2023-02-01T09:56:54;3.57;;;1.80;;
6280;SDS011;3173;48.204;11.612;2023-02-01T10:02:00;3.83;;;1.77;;
6280;SDS011;3173;48.204;11.612;2023-02-01T10:04:27;3.10;;;2.00;;
6280;SDS011;3173;48.204;11.612;2023-02-01T10:09:32;3.80;;;2.03;;
6280;SDS011;3173;48.204;11.612;2023-02-01T10:25:52;4.03;;;2.03;;
6280;SDS011;3173;48.204;11.612;2023-02-01T10:28:19;4.00;;;1.90;;
6280;SDS011;3173;48.204;11.612;2023-02-01T10:30:47;2.93;;;1.80;;
6280;SDS011;3173;48.204;11.612;2023-02-01T10:33:18;2.90;;;1.93;;
6280;SDS011;3173;48.204;11.612;2023-02-01T10:35:45;4.83;;;2.37;;
6280;SDS011;3173;48.204;11.612;2023-02-01T10:38:30;4.80;;;2.23;;
6280;SDS011;3173;48.204;11.612;2023-02-01T10:41:05;2.50;;;1.67;;
6280;SDS011;3173;48.204;11.612;2023-02-01T10:43:34;2.60;;;1.70;;
6280;SDS011;3173;48.204;11.612;2023-02-01T10:46:01;4.63;;;2.30;;
6280;SDS011;3173;48.204;11.612;2023-02-01T10:48:27;2.67;;;2.07;;
6280;SDS011;3173;48.204;11.612;2023-02-01T10:50:58;3.77;;;2.20;;
6280;SDS011;3173;48.204;11.612;2023-02-01T10:53:28;3.13;;;1.90;;
6280;SDS011;3173;48.204;11.612;2023-02-01T10:55:55;9.67;;;2.10;;
6280;SDS011;3173;48.204;11.612;2023-02-01T10:58:26;2.87;;;1.70;;
6280;SDS011;3173;48.204;11.612;2023-02-01T11:00:54;3.30;;;1.93;;
6280;SDS011;3173;48.204;11.612;2023-02-01T11:03:22;5.30;;;2.10;;
6280;SDS011;3173;48.204;11.612;2023-02-01T11:05:56;2.50;;;1.87;;
6280;SDS011;3173;48.204;11.612;2023-02-01T11:08:22;2.73;;;1.80;;
6280;SDS011;3173;48.204;11.612;2023-02-01T11:10:49;3.00;;;1.70;;
6280;SDS011;3173;48.204;11.612;2023-02-01T11:13:21;3.10;;;2.13;;
6280;SDS011;3173;48.204;11.612;2023-02-01T11:15:54;2.80;;;1.57;;
6280;SDS011;3173;48.204;11.612;2023-02-01T11:18:25;6.50;;;1.73;;
6280;SDS011;3173;48.204;11.612;2023-02-01T11:20:52;3.00;;;2.13;;
6280;SDS011;3173;48.204;11.612;2023-02-01T11:23:21;3.00;;;1.90;;
6280;SDS011;3173;48.204;11.612;2023-02-01T11:25:59;5.20;;;2.10;;
6280;SDS011;3173;48.204;11.612;2023-02-01T11:28:26;9.50;;;1.80;;
6280;SDS011;3173;48.204;11.612;2023-02-01T11:30:54;4.10;;;2.20;;
6280;SDS011;3173;48.204;11.612;2023-02-01T11:33:22;8.60;;;2.17;;
6280;SDS011;3173;48.204;11.612;2023-02-01T11:35:50;3.60;;;2.10;;
6280;SDS011;3173;48.204;11.612;2023-02-01T11:38:22;3.27;;;1.73;;
6280;SDS011;3173;48.204;11.612;2023-02-01T11:40:51;4.00;;;2.10;;
6280;SDS011;3173;48.204;11.612;2023-02-01T11:43:24;3.90;;;2.07;;
6280;SDS011;3173;48.204;11.612;2023-02-01T11:46:01;3.10;;;2.30;;
6280;SDS011;3173;48.204;11.612;2023-02-01T11:48:28;3.17;;;2.33;;
6280;SDS011;3173;48.204;11.612;2023-02-01T11:51:08;3.73;;;2.07;;
6280;SDS011;3173;48.204;11.612;2023-02-01T11:56:25;6.00;;;2.50;;
6280;SDS011;3173;48.204;11.612;2023-02-01T12:06:54;7.47;;;2.77;;
6280;SDS011;3173;48.204;11.612;2023-02-01T12:12:13;3.50;;;2.27;;
6280;SDS011;3173;48.204;11.612;2023-02-01T12:19:46;6.40;;;2.53;;
6280;SDS011;3173;48.204;11.612;2023-02-01T12:30:20;3.33;;;2.33;;
6280;SDS011;3173;48.204;11.612;2023-02-01T12:35:29;6.80;;;2.60;;
6280;SDS011;3173;48.204;11.612;2023-02-01T12:40:34;7.10;;;2.87;;
6280;SDS011;3173;48.204;11.612;2023-02-01T12:45:36;7.80;;;2.83;;
6280;SDS011;3173;48.204;11.612;2023-02-01T12:48:15;7.23;;;2.77;;
6280;SDS011;3173;48.204;11.612;2023-02-01T12:50:48;7.63;;;2.60;;
6280;SDS011;3173;48.204;11.612;2023-02-01T12:55:52;8.33;;;3.23;;
6280;SDS011;3173;48.204;11.612;2023-02-01T12:58:41;6.60;;;2.80;;
6280;SDS011;3173;48.204;11.612;2023-02-01T13:01:06;3.90;;;2.07;;
6280;SDS011;3173;48.204;11.612;2023-02-01T13:03:40;6.40;;;2.30;;
6280;SDS011;3173;48.204;11.612;2023-02-01T13:08:42;4.53;;;2.13;;
6280;SDS011;3173;48.204;11.612;2023-02-01T13:11:10;6.37;;;2.37;;
6280;SDS011;3173;48.204;11.612;2023-02-01T13:13:44;8.80;;;2.20;;
6280;SDS011;3173;48.204;11.612;2023-02-01T13:18:41;8.37;;;2.90;;
6280;SDS011;3173;48.204;11.612;2023-02-01T13:21:10;4.57;;;2.40;;
6280;SDS011;3173;48.204;11.612;2023-02-01T13:23:39;8.67;;;1.73;;
6280;SDS011;3173;48.204;11.612;2023-02-01T13:26:06;6.53;;;2.27;;
6280;SDS011;3173;48.204;11.612;2023-02-01T13:42:33;4.37;;;2.10;;
6280;SDS011;3173;48.204;11.612;2023-02-01T13:46:58;5.90;;;2.77;;
6280;SDS011;3173;48.204;11.612;2023-02-01T13:49:26;4.83;;;2.47;;
6280;SDS011;3173;48.204;11.612;2023-02-01T13:51:54;4.43;;;2.13;;
6280;SDS011;3173;48.204;11.612;2023-02-01T13:54:23;7.90;;;2.83;;
6280;SDS011;3173;48.204;11.612;2023-02-01T13:56:50;5.27;;;2.40;;
6280;SDS011;3173;48.204;11.612;2023-02-01T14:02:36;2.70;;;1.67;;
6280;SDS011;3173;48.204;11.612;2023-02-01T14:04:49;3.97;;;2.87;;
6280;SDS011;3173;48.204;11.612;2023-02-01T14:07:20;6.40;;;2.70;;
6280;SDS011;3173;48.204;11.612;2023-02-01T14:09:46;4.17;;;2.77;;
6280;SDS011;3173;48.204;11.612;2023-02-01T14:17:42;7.83;;;3.07;;
6280;SDS011;3173;48.204;11.612;2023-02-01T14:23:00;3.50;;;2.23;;
6280;SDS011;3173;48.204;11.612;2023-02-01T14:25:31;6.30;;;2.50;;
6280;SDS011;3173;48.204;11.612;2023-02-01T14:27:57;5.23;;;2.40;;
6280;SDS011;3173;48.204;11.612;2023-02-01T14:30:24;3.23;;;2.50;;
6280;SDS011;3173;48.204;11.612;2023-02-01T14:32:50;8.37;;;3.10;;
6280;SDS011;3173;48.204;11.612;2023-02-01T14:35:34;4.40;;;2.20;;
6280;SDS011;3173;48.204;11.612;2023-02-01T14:38:01;7.67;;;2.50;;
6280;SDS011;3173;48.204;11.612;2023-02-01T14:40:29;5.23;;;2.53;;
6280;SDS011;3173;48.204;11.612;2023-02-01T14:42:55;4.60;;;1.90;;
6280;SDS011;3173;48.204;11.612;2023-02-01T14:47:54;3.77;;;1.77;;
6280;SDS011;3173;48.204;11.612;2023-02-01T14:53:11;4.50;;;1.87;;
6280;SDS011;3173;48.204;11.612;2023-02-01T14:55:45;4.43;;;2.07;;
6280;SDS011;3173;48.204;11.612;2023-02-01T15:00:47;3.80;;;1.83;;
6280;SDS011;3173;48.204;11.612;2023-02-01T15:05:59;9.17;;;1.97;;
6280;SDS011;3173;48.204;11.612;2023-02-01T15:08:35;6.20;;;1.90;;
6280;SDS011;3173;48.204;11.612;2023-02-01T15:11:06;6.60;;;2.67;;
6280;SDS011;3173;48.204;11.612;2023-02-01T15:13:34;5.53;;;2.10;;
6280;SDS011;3173;48.204;11.612;2023-02-01T15:16:01;5.67;;;2.03;;
6280;SDS011;3173;48.204;11.612;2023-02-01T15:18:28;6.07;;;1.90;;
6280;SDS011;3173;48.204;11.612;2023-02-01T15:20:58;5.30;;;2.40;;
6280;SDS011;3173;48.204;11.612;2023-02-01T15:23:24;2.40;;;1.60;;
6280;SDS011;3173;48.204;11.612;2023-02-01T15:25:50;8.10;;;2.13;;
6280;SDS011;3173;48.204;11.612;2023-02-01T15:28:16;3.70;;;1.93;;
6280;SDS011;3173;48.204;11.612;2023-02-01T15:33:21;3.63;;;1.97;;
6280;SDS011;3173;48.204;11.612;2023-02-01T15:35:54;9.30;;;3.10;;
6280;SDS011;3173;48.204;11.612;2023-02-01T15:38:31;3.60;;;1.53;;
6280;SDS011;3173;48.204;11.612;2023-02-01T15:41:02;3.70;;;1.87;;
6280;SDS011;3173;48.204;11.612;2023-02-01T15:43:30;8.20;;;2.00;;
6280;SDS011;3173;48.204;11.612;2023-02-01T15:45:58;5.70;;;1.90;;
6280;SDS011;3173;48.204;11.612;2023-02-01T15:48:25;4.57;;;2.43;;
6280;SDS011;3173;48.204;11.612;2023-02-01T15:50:53;5.63;;;1.97;;
6280;SDS011;3173;48.204;11.612;2023-02-01T15:53:21;3.57;;;1.97;;
6280;SDS011;3173;48.204;11.612;2023-02-01T15:55:51;5.43;;;1.97;;
6280;SDS011;3173;48.204;11.612;2023-02-01T15:58:18;5.13;;;1.83;;
6280;SDS011;3173;48.204;11.612;2023-02-01T16:00:45;5.23;;;1.60;;
6280;SDS011;3173;48.204;11.612;2023-02-01T16:03:24;3.50;;;1.30;;
6280;SDS011;3173;48.204;11.612;2023-02-01T16:05:57;7.60;;;1.73;;
6280;SDS011;3173;48.204;11.612;2023-02-01T16:08:24;3.30;;;1.90;;
6280;SDS011;3173;48.204;11.612;2023-02-01T16:10:51;6.27;;;1.57;;
6280;SDS011;3173;48.204;11.612;2023-02-01T16:13:18;3.30;;;1.67;;
6280;SDS011;3173;48.204;11.612;2023-02-01T16:15:45;7.43;;;1.77;;
6280;SDS011;3173;48.204;11.612;2023-02-01T16:18:11;11.33;;;1.70;;
6280;SDS011;3173;48.204;11.612;2023-02-01T16:20:38;12.57;;;1.97;;
6280;SDS011;3173;48.204;11.612;2023-02-01T16:23:05;8.00;;;2.23;;
6280;SDS011;3173;48.204;11.612;2023-02-01T16:25:32;7.63;;;1.70;;
6280;SDS011;3173;48.204;11.612;2023-02-01T16:27:58;12.10;;;2.03;;
6280;SDS011;3173;48.204;11.612;2023-02-01T16:30:24;2.63;;;1.30;;
6280;SDS011;3173;48.204;11.612;2023-02-01T16:35:24;7.30;;;2.20;;
6280;SDS011;3173;48.204;11.612;2023-02-01T16:37:50;13.27;;;1.43;;
6280;SDS011;3173;48.204;11.612;2023-02-01T16:40:17;8.80;;;1.60;;
6280;SDS011;3173;48.204;11.612;2023-02-01T16:42:44;12.87;;;2.27;;
6280;SDS011;3173;48.204;11.612;2023-02-01T16:45:11;8.30;;;1.67;;
6280;SDS011;3173;48.204;11.612;2023-02-01T16:47:37;4.10;;;1.80;;
6280;SDS011;3173;48.204;11.612;2023-02-01T16:50:05;5.90;;;3.23;;
6280;SDS011;3173;48.204;11.612;2023-02-01T16:52:40;5.50;;;1.60;;
6280;SDS011;3173;48.204;11.612;2023-02-01T16:55:16;6.10;;;1.13;;
6280;SDS011;3173;48.204;11.612;2023-02-01T16:57:42;6.43;;;1.33;;
6280;SDS011;3173;48.204;11.612;2023-02-01T17:00:09;6.03;;;3.00;;
6280;SDS011;3173;48.204;11.612;2023-02-01T17:02:35;3.10;;;1.53;;
6280;SDS011;3173;48.204;11.612;2023-02-01T17:05:01;5.43;;;1.40;;
6280;SDS011;3173;48.204;11.612;2023-02-01T17:07:28;8.00;;;2.60;;
6280;SDS011;3173;48.204;11.612;2023-02-01T17:09:54;4.80;;;1.80;;
6280;SDS011;3173;48.204;11.612;2023-02-01T17:14:46;8.60;;;1.87;;
6280;SDS011;3173;48.204;11.612;2023-02-01T17:17:12;10.43;;;1.70;;
6280;SDS011;3173;48.204;11.612;2023-02-01T17:19:39;11.33;;;1.77;;
6280;SDS011;3173;48.204;11.612;2023-02-01T17:22:07;3.90;;;2.13;;
6280;SDS011;3173;48.204;11.612;2023-02-01T17:24:33;9.53;;;2.00;;
6280;SDS011;3173;48.204;11.612;2023-02-01T17:26:59;6.53;;;1.60;;
6280;SDS011;3173;48.204;11.612;2023-02-01T17:29:28;7.27;;;1.67;;
6280;SDS011;3173;48.204;11.612;2023-02-01T17:31:54;4.50;;;1.70;;